createdAt,value
2024-01-25T04:35:35.758Z,5.20
2024-01-25T04:38:04.073Z,5.32
2024-01-25T04:40:32.165Z,5.20
2024-01-25T04:43:00.422Z,5.53
2024-01-25T04:45:28.297Z,5.68
2024-01-25T04:47:57.362Z,4.90
2024-01-25T04:50:25.630Z,5.25
2024-01-25T04:52:53.719Z,4.80
2024-01-25T04:55:21.683Z,4.30
2024-01-25T04:57:54.743Z,4.50
2024-01-25T05:00:23.949Z,4.10
2024-01-25T05:02:51.916Z,4.50
2024-01-25T05:05:19.666Z,3.97
2024-01-25T05:07:47.740Z,3.83
2024-01-25T05:10:16.009Z,4.53
2024-01-25T05:12:43.850Z,12.68
2024-01-25T05:15:11.866Z,9.50
2024-01-25T05:17:39.803Z,9.20
2024-01-25T05:20:08.450Z,8.80
2024-01-25T05:22:41.537Z,8.43
2024-01-25T05:25:09.884Z,11.23
2024-01-25T05:27:37.824Z,23.30
2024-01-25T05:30:06.478Z,22.33
2024-01-25T05:32:34.429Z,20.52
2024-01-25T05:35:03.418Z,24.15
2024-01-25T05:37:31.555Z,24.42
2024-01-25T05:39:59.448Z,26.48
2024-01-25T05:42:27.335Z,26.33
2024-01-25T05:44:56.059Z,24.30
2024-01-25T05:47:25.049Z,23.35
2024-01-25T05:49:53.188Z,21.33
2024-01-25T05:52:22.895Z,18.92
2024-01-25T05:54:51.225Z,17.75
2024-01-25T05:57:20.123Z,16.77
2024-01-25T05:59:49.029Z,16.23
2024-01-25T06:02:17.103Z,18.67
2024-01-25T06:04:45.300Z,17.70
2024-01-25T06:07:13.528Z,21.75
2024-01-25T06:09:41.982Z,23.30
2024-01-25T06:12:09.926Z,46.67
2024-01-25T06:14:37.884Z,41.33
2024-01-25T06:17:05.772Z,36.95
2024-01-25T06:19:34.702Z,33.50
2024-01-25T06:22:02.537Z,13.52
2024-01-25T06:24:30.267Z,10.38
2024-01-25T06:26:58.423Z,10.77
2024-01-25T06:29:26.305Z,11.50
2024-01-25T06:31:54.568Z,10.95
2024-01-25T06:34:22.353Z,10.98
2024-01-25T06:36:50.625Z,10.73
2024-01-25T06:39:18.628Z,10.27
2024-01-25T06:41:46.454Z,9.45
2024-01-25T06:44:14.348Z,8.35
2024-01-25T06:46:42.200Z,8.73
2024-01-25T06:49:14.020Z,8.73
2024-01-25T06:51:42.975Z,8.27
2024-01-25T06:54:11.141Z,7.82
2024-01-25T06:56:40.156Z,8.20
2024-01-25T06:59:07.893Z,7.32
2024-01-25T07:01:36.464Z,7.05
2024-01-25T07:04:05.196Z,6.93
2024-01-25T07:06:33.625Z,6.75
2024-01-25T07:09:01.690Z,6.90
2024-01-25T07:11:30.523Z,6.82
2024-01-25T07:13:58.273Z,7.00
2024-01-25T07:16:26.351Z,6.90
2024-01-25T07:18:54.211Z,6.40
2024-01-25T07:21:22.212Z,6.32
2024-01-25T07:23:49.919Z,6.28
2024-01-25T07:26:19.341Z,5.88
2024-01-25T07:28:47.735Z,6.88
2024-01-25T07:31:15.801Z,5.90
2024-01-25T07:33:43.810Z,6.00
2024-01-25T07:36:11.677Z,6.13
2024-01-25T07:38:39.460Z,6.18
2024-01-25T07:41:08.571Z,6.07
2024-01-25T07:43:36.400Z,5.78
2024-01-25T07:46:04.364Z,5.68
2024-01-25T07:48:32.326Z,5.90
2024-01-25T07:51:00.762Z,5.95
2024-01-25T07:53:29.421Z,5.70
2024-01-25T07:55:57.184Z,6.15
2024-01-25T07:58:25.106Z,5.30
2024-01-25T08:00:53.439Z,6.20
2024-01-25T08:03:21.630Z,6.18
2024-01-25T08:05:51.610Z,5.25
2024-01-25T08:08:19.811Z,6.00
2024-01-25T08:10:48.393Z,5.55
2024-01-25T08:13:16.141Z,5.55
2024-01-25T08:15:43.970Z,5.15
2024-01-25T08:18:12.215Z,5.00
2024-01-25T08:20:40.317Z,6.03
2024-01-25T08:23:10.474Z,5.63
2024-01-25T08:25:38.593Z,5.68
2024-01-25T08:28:06.866Z,4.90
2024-01-25T08:30:34.969Z,5.25
2024-01-25T08:33:03.114Z,5.13
2024-01-25T08:35:34.891Z,4.88
2024-01-25T08:38:03.942Z,4.72
2024-01-25T08:40:31.626Z,5.47
2024-01-25T08:42:59.558Z,5.80
2024-01-25T08:45:27.526Z,5.10
2024-01-25T08:47:57.486Z,4.60
2024-01-25T08:50:27.704Z,5.20
2024-01-25T08:52:55.839Z,4.70
2024-01-25T08:55:23.921Z,4.68
2024-01-25T08:57:52.297Z,4.22
2024-01-25T09:00:21.639Z,4.45
2024-01-25T09:02:50.043Z,4.30
2024-01-25T09:05:18.396Z,3.75
2024-01-25T09:07:46.623Z,3.90
2024-01-25T09:10:14.425Z,3.92
2024-01-25T09:12:43.090Z,3.67
2024-01-25T09:15:12.001Z,3.58
2024-01-25T09:17:39.890Z,3.55
2024-01-25T09:20:09.124Z,3.80
2024-01-25T09:22:37.261Z,3.67
2024-01-25T09:25:07.709Z,3.30
2024-01-25T09:27:39.986Z,3.60
2024-01-25T09:30:09.459Z,3.70
2024-01-25T09:32:38.085Z,3.88
2024-01-25T09:35:07.307Z,3.05
2024-01-25T09:37:36.438Z,3.20
2024-01-25T09:40:05.427Z,3.53
2024-01-25T09:42:34.034Z,3.20
2024-01-25T09:45:02.238Z,3.22
2024-01-25T09:47:31.642Z,2.95
2024-01-25T09:50:01.921Z,2.92
2024-01-25T09:52:32.419Z,3.25
2024-01-25T09:55:02.047Z,3.42
2024-01-25T09:57:31.906Z,3.63
2024-01-25T10:00:00.049Z,3.10
2024-01-25T10:02:27.990Z,3.03
2024-01-25T10:04:58.205Z,3.15
2024-01-25T10:07:43.275Z,3.05
2024-01-25T10:10:12.523Z,3.22
2024-01-25T10:12:42.709Z,2.50
2024-01-25T10:15:11.830Z,2.83
2024-01-25T10:17:58.644Z,3.33
2024-01-25T10:20:31.551Z,2.80
2024-01-25T10:23:01.397Z,3.00
2024-01-25T10:25:30.310Z,3.05
2024-01-25T10:27:59.340Z,2.95
2024-01-25T10:30:30.415Z,2.78
2024-01-25T10:33:01.075Z,2.65
2024-01-25T10:35:30.688Z,2.60
2024-01-25T10:37:59.591Z,2.25
2024-01-25T10:40:29.528Z,2.40
2024-01-25T10:42:57.758Z,2.45
2024-01-25T10:45:25.887Z,2.70
2024-01-25T10:47:54.013Z,2.50
2024-01-25T10:50:22.349Z,2.40
2024-01-25T10:52:50.626Z,2.63
2024-01-25T10:55:18.722Z,2.58
2024-01-25T10:57:49.302Z,2.53
2024-01-25T11:00:18.033Z,2.17
2024-01-25T11:02:51.188Z,2.40
2024-01-25T11:05:22.335Z,2.08
2024-01-25T11:07:52.237Z,2.37
2024-01-25T11:10:22.584Z,2.65
2024-01-25T11:12:56.940Z,2.20
2024-01-25T11:15:33.422Z,2.13
2024-01-25T11:18:03.686Z,2.40
2024-01-25T11:20:33.433Z,1.92
2024-01-25T11:23:06.801Z,2.22
2024-01-25T11:25:36.387Z,2.08
2024-01-25T11:28:09.091Z,2.17
2024-01-25T11:30:39.536Z,2.40
2024-01-25T11:33:11.303Z,2.13
2024-01-25T11:35:39.858Z,2.38
2024-01-25T11:38:09.370Z,1.67
2024-01-25T11:40:38.139Z,2.17
2024-01-25T11:43:12.438Z,2.17
2024-01-25T11:45:44.833Z,2.33
2024-01-25T11:50:42.135Z,2.08
2024-01-25T11:53:11.180Z,2.03
2024-01-25T11:55:39.513Z,2.00
2024-01-25T11:58:08.488Z,2.05
2024-01-25T12:00:37.812Z,2.20
2024-01-25T12:03:06.359Z,1.80
2024-01-25T12:05:34.342Z,1.98
2024-01-25T12:08:03.238Z,1.98
2024-01-25T12:10:31.393Z,1.80
2024-01-25T12:12:59.282Z,2.10
2024-01-25T12:15:27.044Z,1.73
2024-01-25T12:17:55.671Z,1.90
2024-01-25T12:20:23.924Z,1.90
2024-01-25T12:22:51.845Z,1.80
2024-01-25T12:25:19.737Z,1.70
2024-01-25T12:27:51.246Z,1.73
2024-01-25T12:30:19.193Z,1.80
2024-01-25T12:32:50.710Z,1.88
2024-01-25T12:35:19.454Z,1.70
2024-01-25T12:37:47.726Z,1.67
2024-01-25T12:40:15.754Z,1.70
2024-01-25T12:42:44.274Z,1.80
2024-01-25T12:45:12.854Z,1.65
2024-01-25T12:47:41.939Z,1.90
2024-01-25T12:50:10.935Z,1.55
2024-01-25T12:52:39.412Z,1.70
2024-01-25T12:55:07.817Z,1.73
2024-01-25T12:57:35.926Z,1.92
2024-01-25T13:00:05.664Z,1.80
2024-01-25T13:02:33.485Z,1.80
2024-01-25T13:05:01.463Z,1.77
2024-01-25T13:07:30.081Z,1.88
2024-01-25T13:10:00.809Z,1.83
2024-01-25T13:12:28.677Z,1.98
2024-01-25T13:14:56.462Z,1.98
2024-01-25T13:17:25.558Z,1.75
2024-01-25T13:19:53.566Z,1.95
2024-01-25T13:22:25.766Z,1.90
2024-01-25T13:24:53.553Z,2.00
2024-01-25T13:27:21.490Z,1.63
2024-01-25T13:29:49.292Z,2.33
2024-01-25T13:32:17.120Z,2.00
2024-01-25T13:34:45.002Z,1.65
2024-01-25T13:37:13.320Z,1.80
2024-01-25T13:39:41.072Z,1.80
2024-01-25T13:42:08.813Z,1.58
2024-01-25T13:44:36.779Z,1.80
2024-01-25T13:47:04.819Z,2.05
2024-01-25T13:49:33.039Z,1.65
2024-01-25T13:52:03.155Z,1.90
2024-01-25T13:54:31.432Z,1.92
2024-01-25T13:56:59.380Z,1.58
2024-01-25T13:59:27.469Z,2.05
2024-01-25T14:01:56.416Z,1.67
2024-01-25T14:04:24.486Z,1.80
2024-01-25T14:06:52.734Z,1.77
2024-01-25T14:09:21.200Z,2.03
2024-01-25T14:11:49.325Z,1.45
2024-01-25T14:14:18.337Z,1.88
2024-01-25T14:16:46.246Z,1.60
2024-01-25T14:19:14.594Z,1.67
2024-01-25T14:21:42.534Z,1.80
2024-01-25T14:24:10.322Z,1.73
2024-01-25T14:26:38.252Z,1.60
2024-01-25T14:29:06.083Z,1.60
2024-01-25T14:31:33.902Z,1.75
2024-01-25T14:34:02.454Z,1.70
2024-01-25T14:36:30.496Z,1.60
2024-01-25T14:38:58.249Z,1.63
2024-01-25T14:41:26.195Z,1.85
2024-01-25T14:43:54.054Z,1.70
2024-01-25T14:46:21.768Z,1.45
2024-01-25T14:48:49.640Z,1.70
2024-01-25T14:51:17.823Z,1.17
2024-01-25T14:53:45.592Z,1.48
2024-01-25T14:56:14.020Z,1.85
2024-01-25T14:58:42.233Z,1.95
2024-01-25T15:03:42.575Z,2.17
2024-01-25T15:06:10.384Z,1.60
2024-01-25T15:08:38.190Z,1.77
2024-01-25T15:11:06.423Z,1.85
2024-01-25T15:13:34.302Z,1.88
2024-01-25T15:16:02.406Z,2.03
2024-01-25T15:18:30.356Z,1.80
2024-01-25T15:20:58.629Z,1.83
2024-01-25T15:23:26.419Z,1.70
2024-01-25T15:25:54.773Z,1.55
2024-01-25T15:28:22.618Z,2.05
2024-01-25T15:30:50.503Z,1.50
2024-01-25T15:33:18.591Z,1.98
2024-01-25T15:35:46.481Z,1.88
2024-01-25T15:38:16.884Z,1.83
2024-01-25T15:40:44.845Z,1.77
2024-01-25T15:43:12.770Z,1.80
2024-01-25T15:45:40.723Z,1.80
2024-01-25T15:48:08.566Z,1.75
2024-01-25T15:50:36.593Z,1.63
2024-01-25T15:53:04.524Z,1.70
2024-01-25T15:55:32.394Z,1.55
2024-01-25T15:58:00.337Z,1.77
2024-01-25T16:00:28.355Z,1.65
2024-01-25T16:02:58.144Z,2.05
2024-01-25T16:05:26.830Z,2.08
2024-01-25T16:07:54.561Z,1.50
2024-01-25T16:10:22.519Z,2.08
2024-01-25T16:12:51.204Z,1.70
2024-01-25T16:15:19.718Z,1.52
2024-01-25T16:17:47.667Z,1.80
2024-01-25T16:20:16.694Z,2.33
2024-01-25T16:22:44.799Z,2.10
2024-01-25T16:25:12.892Z,1.80
2024-01-25T16:27:40.751Z,2.15
2024-01-25T16:30:09.151Z,1.70
2024-01-25T16:32:37.167Z,1.80
2024-01-25T16:35:05.506Z,1.83
2024-01-25T16:37:33.256Z,1.50
2024-01-25T16:40:01.301Z,2.20
2024-01-25T16:42:29.557Z,1.90
2024-01-25T16:44:57.521Z,2.13
2024-01-25T16:47:25.286Z,1.75
2024-01-25T16:49:53.150Z,1.95
2024-01-25T16:52:20.949Z,2.08
2024-01-25T16:54:48.862Z,2.22
2024-01-25T16:57:16.667Z,2.05
2024-01-25T16:59:44.640Z,1.55
2024-01-25T17:02:12.496Z,2.03
2024-01-25T17:04:40.492Z,2.00
2024-01-25T17:07:08.537Z,2.00
2024-01-25T17:09:36.460Z,1.85
2024-01-25T17:12:04.448Z,2.10
2024-01-25T17:14:32.184Z,1.88
2024-01-25T17:17:00.262Z,1.90
2024-01-25T17:19:28.936Z,2.10
2024-01-25T17:21:56.927Z,1.90
2024-01-25T17:24:24.972Z,1.80
2024-01-25T17:26:52.879Z,2.08
2024-01-25T17:29:20.712Z,2.00
2024-01-25T17:31:49.445Z,2.13
2024-01-25T17:34:17.758Z,1.63
2024-01-25T17:36:45.658Z,2.20
2024-01-25T17:39:14.009Z,2.08
2024-01-25T17:41:42.052Z,2.15
2024-01-25T17:44:09.955Z,1.80
2024-01-25T17:46:37.802Z,2.10
2024-01-25T17:49:05.971Z,2.10
2024-01-25T17:51:37.611Z,2.10
2024-01-25T17:54:05.649Z,2.03
2024-01-25T17:56:33.347Z,2.35
2024-01-25T17:59:03.268Z,2.10
2024-01-25T18:01:31.238Z,1.90
2024-01-25T18:03:59.523Z,1.90
2024-01-25T18:06:27.418Z,1.77
2024-01-25T18:08:55.970Z,1.85
2024-01-25T18:11:23.835Z,2.10
2024-01-25T18:13:51.625Z,1.75
2024-01-25T18:16:19.427Z,2.08
2024-01-25T18:18:47.299Z,2.00
2024-01-25T18:21:15.390Z,2.22
2024-01-25T18:23:43.209Z,1.75
2024-01-25T18:26:11.206Z,2.13
2024-01-25T18:28:39.066Z,1.90
2024-01-25T18:31:07.052Z,2.45
2024-01-25T18:33:38.419Z,1.95
2024-01-25T18:36:09.947Z,2.20
2024-01-25T18:38:38.574Z,2.08
2024-01-25T18:41:10.967Z,1.60
2024-01-25T18:43:39.135Z,1.77
2024-01-25T18:46:08.177Z,1.60
2024-01-25T18:48:36.401Z,1.75
2024-01-25T18:51:08.139Z,1.77
2024-01-25T18:56:04.647Z,1.70
2024-01-25T18:58:34.184Z,1.60
2024-01-25T19:01:03.266Z,1.63
2024-01-25T19:03:32.053Z,1.90
2024-01-25T19:06:01.126Z,1.80
2024-01-25T19:08:29.453Z,1.90
2024-01-25T19:10:57.466Z,1.73
2024-01-25T19:13:25.675Z,1.80
2024-01-25T19:15:53.822Z,1.90
2024-01-25T19:18:26.992Z,1.70
